sensor_id;sensor_type;location;lat;lon;timestamp;temperature;humidity
12049;DHT22;6085;49.452;8.502;2024-02-23T00:00:29;8.40;99.90
12049;DHT22;6085;49.452;8.502;2024-02-23T00:04:31;8.40;99.90
12049;DHT22;6085;49.452;8.502;2024-02-23T00:08:33;8.40;99.90
12049;DHT22;6085;49.452;8.502;2024-02-23T00:12:35;8.30;99.90
12049;DHT22;6085;49.452;8.502;2024-02-23T00:16:41;8.20;99.90
12049;DHT22;6085;49.452;8.502;2024-02-23T00:20:43;8.20;99.90
12049;DHT22;6085;49.452;8.502;2024-02-23T00:24:46;8.10;99.90
12049;DHT22;6085;49.452;8.502;2024-02-23T00:28:47;8.00;99.90
12049;DHT22;6085;49.452;8.502;2024-02-23T00:32:51;7.90;99.90
12049;DHT22;6085;49.452;8.502;2024-02-23T00:36:52;7.70;99.90
12049;DHT22;6085;49.452;8.502;2024-02-23T00:40:54;7.50;99.90
12049;DHT22;6085;49.452;8.502;2024-02-23T00:44:56;7.30;99.90
12049;DHT22;6085;49.452;8.502;2024-02-23T00:48:59;7.20;99.90
12049;DHT22;6085;49.452;8.502;2024-02-23T00:53:01;7.10;99.90
12049;DHT22;6085;49.452;8.502;2024-02-23T00:57:03;7.00;99.90
12049;DHT22;6085;49.452;8.502;2024-02-23T01:01:05;6.90;99.90
12049;DHT22;6085;49.452;8.502;2024-02-23T01:05:08;6.90;99.90
12049;DHT22;6085;49.452;8.502;2024-02-23T01:09:11;6.90;99.90
12049;DHT22;6085;49.452;8.502;2024-02-23T01:13:12;6.90;99.90
12049;DHT22;6085;49.452;8.502;2024-02-23T01:17:14;6.90;99.90
12049;DHT22;6085;49.452;8.502;2024-02-23T01:21:18;6.90;99.90
12049;DHT22;6085;49.452;8.502;2024-02-23T01:25:20;6.90;99.90
12049;DHT22;6085;49.452;8.502;2024-02-23T01:29:22;6.80;99.90
12049;DHT22;6085;49.452;8.502;2024-02-23T01:33:24;6.80;99.90
12049;DHT22;6085;49.452;8.502;2024-02-23T01:37:27;6.80;99.90
12049;DHT22;6085;49.452;8.502;2024-02-23T01:41:29;7.10;99.90
12049;DHT22;6085;49.452;8.502;2024-02-23T01:45:31;7.40;99.90
12049;DHT22;6085;49.452;8.502;2024-02-23T01:49:33;7.50;99.90
12049;DHT22;6085;49.452;8.502;2024-02-23T01:53:37;6.80;99.90
12049;DHT22;6085;49.452;8.502;2024-02-23T01:57:40;6.10;99.90
12049;DHT22;6085;49.452;8.502;2024-02-23T02:01:43;5.80;99.90
12049;DHT22;6085;49.452;8.502;2024-02-23T02:05:45;5.70;99.90
12049;DHT22;6085;49.452;8.502;2024-02-23T02:09:48;5.70;99.90
12049;DHT22;6085;49.452;8.502;2024-02-23T02:13:50;5.70;99.90
12049;DHT22;6085;49.452;8.502;2024-02-23T02:17:52;5.70;99.90
12049;DHT22;6085;49.452;8.502;2024-02-23T02:21:54;5.70;99.90
12049;DHT22;6085;49.452;8.502;2024-02-23T02:25:58;5.70;99.90
12049;DHT22;6085;49.452;8.502;2024-02-23T02:30:00;5.60;99.90
12049;DHT22;6085;49.452;8.502;2024-02-23T02:34:03;5.60;99.90
12049;DHT22;6085;49.452;8.502;2024-02-23T02:38:04;5.40;99.90
12049;DHT22;6085;49.452;8.502;2024-02-23T02:42:08;5.40;99.90
12049;DHT22;6085;49.452;8.502;2024-02-23T02:46:10;5.30;99.90
12049;DHT22;6085;49.452;8.502;2024-02-23T02:50:12;5.20;99.90
12049;DHT22;6085;49.452;8.502;2024-02-23T02:54:14;5.30;99.90
12049;DHT22;6085;49.452;8.502;2024-02-23T02:58:18;5.30;99.90
12049;DHT22;6085;49.452;8.502;2024-02-23T03:02:19;5.50;99.90
12049;DHT22;6085;49.452;8.502;2024-02-23T03:06:21;5.80;99.90
12049;DHT22;6085;49.452;8.502;2024-02-23T03:10:23;5.90;99.90
12049;DHT22;6085;49.452;8.502;2024-02-23T03:14:27;6.00;99.90
12049;DHT22;6085;49.452;8.502;2024-02-23T03:18:28;6.00;99.90
12049;DHT22;6085;49.452;8.502;2024-02-23T03:22:30;6.10;99.90
12049;DHT22;6085;49.452;8.502;2024-02-23T03:26:32;6.20;99.90
12049;DHT22;6085;49.452;8.502;2024-02-23T03:30:35;6.10;99.90
12049;DHT22;6085;49.452;8.502;2024-02-23T03:34:37;6.10;99.90
12049;DHT22;6085;49.452;8.502;2024-02-23T03:38:39;6.10;99.90
12049;DHT22;6085;49.452;8.502;2024-02-23T03:42:40;6.10;99.90
12049;DHT22;6085;49.452;8.502;2024-02-23T03:46:44;6.10;99.90
12049;DHT22;6085;49.452;8.502;2024-02-23T03:50:46;6.20;99.90
12049;DHT22;6085;49.452;8.502;2024-02-23T03:54:47;6.20;99.90
12049;DHT22;6085;49.452;8.502;2024-02-23T03:58:49;6.30;99.90
12049;DHT22;6085;49.452;8.502;2024-02-23T04:02:52;6.30;99.90
12049;DHT22;6085;49.452;8.502;2024-02-23T04:06:54;6.10;99.90
12049;DHT22;6085;49.452;8.502;2024-02-23T04:10:56;5.80;99.90
12049;DHT22;6085;49.452;8.502;2024-02-23T04:14:58;5.60;99.90
12049;DHT22;6085;49.452;8.502;2024-02-23T04:19:01;5.40;99.90
12049;DHT22;6085;49.452;8.502;2024-02-23T04:23:03;5.40;99.90
12049;DHT22;6085;49.452;8.502;2024-02-23T04:27:06;5.40;99.90
12049;DHT22;6085;49.452;8.502;2024-02-23T04:31:08;5.40;99.90
12049;DHT22;6085;49.452;8.502;2024-02-23T04:35:12;5.10;99.90
12049;DHT22;6085;49.452;8.502;2024-02-23T04:39:14;4.90;99.90
12049;DHT22;6085;49.452;8.502;2024-02-23T04:43:16;4.70;99.90
12049;DHT22;6085;49.452;8.502;2024-02-23T04:47:18;4.80;99.90
12049;DHT22;6085;49.452;8.502;2024-02-23T04:51:21;4.80;99.90
12049;DHT22;6085;49.452;8.502;2024-02-23T04:55:23;5.00;99.90
12049;DHT22;6085;49.452;8.502;2024-02-23T04:59:25;5.00;99.90
12049;DHT22;6085;49.452;8.502;2024-02-23T05:03:28;5.10;99.90
12049;DHT22;6085;49.452;8.502;2024-02-23T05:07:31;5.20;99.90
12049;DHT22;6085;49.452;8.502;2024-02-23T05:11:33;5.40;99.90
12049;DHT22;6085;49.452;8.502;2024-02-23T05:15:35;5.50;99.90
12049;DHT22;6085;49.452;8.502;2024-02-23T05:19:37;5.70;99.90
12049;DHT22;6085;49.452;8.502;2024-02-23T05:23:40;5.80;99.90
12049;DHT22;6085;49.452;8.502;2024-02-23T05:27:42;5.80;99.90
12049;DHT22;6085;49.452;8.502;2024-02-23T05:31:46;5.80;99.90
12049;DHT22;6085;49.452;8.502;2024-02-23T05:35:48;5.60;99.90
12049;DHT22;6085;49.452;8.502;2024-02-23T05:39:51;5.50;99.90
12049;DHT22;6085;49.452;8.502;2024-02-23T05:43:54;5.60;99.90
12049;DHT22;6085;49.452;8.502;2024-02-23T05:47:56;5.70;99.90
12049;DHT22;6085;49.452;8.502;2024-02-23T05:51:58;5.80;99.90
12049;DHT22;6085;49.452;8.502;2024-02-23T05:56:01;5.90;99.90
12049;DHT22;6085;49.452;8.502;2024-02-23T06:00:04;5.90;99.90
12049;DHT22;6085;49.452;8.502;2024-02-23T06:04:05;6.00;99.90
12049;DHT22;6085;49.452;8.502;2024-02-23T06:08:08;6.00;99.90
12049;DHT22;6085;49.452;8.502;2024-02-23T06:12:11;6.00;99.90
12049;DHT22;6085;49.452;8.502;2024-02-23T06:16:13;6.00;99.90
12049;DHT22;6085;49.452;8.502;2024-02-23T06:20:15;6.10;99.90
12049;DHT22;6085;49.452;8.502;2024-02-23T06:24:17;6.10;99.90
12049;DHT22;6085;49.452;8.502;2024-02-23T06:28:21;6.10;99.90
12049;DHT22;6085;49.452;8.502;2024-02-23T06:32:23;6.10;99.90
12049;DHT22;6085;49.452;8.502;2024-02-23T06:36:25;6.10;99.90
12049;DHT22;6085;49.452;8.502;2024-02-23T06:40:27;6.10;99.90
12049;DHT22;6085;49.452;8.502;2024-02-23T06:44:30;6.20;99.90
12049;DHT22;6085;49.452;8.502;2024-02-23T06:48:32;6.10;99.90
12049;DHT22;6085;49.452;8.502;2024-02-23T06:52:34;6.10;99.90
12049;DHT22;6085;49.452;8.502;2024-02-23T06:56:37;6.00;99.90
12049;DHT22;6085;49.452;8.502;2024-02-23T07:00:41;6.00;99.90
12049;DHT22;6085;49.452;8.502;2024-02-23T07:04:43;5.90;99.90
12049;DHT22;6085;49.452;8.502;2024-02-23T07:08:45;5.60;99.90
12049;DHT22;6085;49.452;8.502;2024-02-23T07:12:47;5.50;99.90
12049;DHT22;6085;49.452;8.502;2024-02-23T07:16:51;5.50;99.90
12049;DHT22;6085;49.452;8.502;2024-02-23T07:20:53;5.50;99.90
12049;DHT22;6085;49.452;8.502;2024-02-23T07:24:57;5.40;99.90
12049;DHT22;6085;49.452;8.502;2024-02-23T07:28:59;5.40;99.90
12049;DHT22;6085;49.452;8.502;2024-02-23T07:33:02;5.40;99.90
12049;DHT22;6085;49.452;8.502;2024-02-23T07:37:04;5.40;99.90
12049;DHT22;6085;49.452;8.502;2024-02-23T07:41:06;5.50;99.90
12049;DHT22;6085;49.452;8.502;2024-02-23T07:45:08;5.70;99.90
12049;DHT22;6085;49.452;8.502;2024-02-23T07:49:12;5.70;99.90
12049;DHT22;6085;49.452;8.502;2024-02-23T07:53:14;5.80;99.90
12049;DHT22;6085;49.452;8.502;2024-02-23T07:57:16;6.00;99.90
12049;DHT22;6085;49.452;8.502;2024-02-23T08:01:18;6.40;99.90
12049;DHT22;6085;49.452;8.502;2024-02-23T08:05:21;7.30;99.90
12049;DHT22;6085;49.452;8.502;2024-02-23T08:09:23;7.90;99.90
12049;DHT22;6085;49.452;8.502;2024-02-23T08:13:24;8.00;99.90
12049;DHT22;6085;49.452;8.502;2024-02-23T08:17:26;8.00;99.90
12049;DHT22;6085;49.452;8.502;2024-02-23T08:21:30;7.90;99.90
12049;DHT22;6085;49.452;8.502;2024-02-23T08:25:31;8.00;99.90
12049;DHT22;6085;49.452;8.502;2024-02-23T08:29:33;7.90;99.90
12049;DHT22;6085;49.452;8.502;2024-02-23T08:33:35;8.10;99.90
12049;DHT22;6085;49.452;8.502;2024-02-23T08:37:39;8.20;99.90
12049;DHT22;6085;49.452;8.502;2024-02-23T08:41:42;8.30;99.90
12049;DHT22;6085;49.452;8.502;2024-02-23T08:45:44;8.30;99.90
12049;DHT22;6085;49.452;8.502;2024-02-23T08:49:46;8.30;99.90
12049;DHT22;6085;49.452;8.502;2024-02-23T08:53:49;8.60;99.90
12049;DHT22;6085;49.452;8.502;2024-02-23T08:57:51;9.10;99.90
12049;DHT22;6085;49.452;8.502;2024-02-23T09:01:53;9.40;99.90
12049;DHT22;6085;49.452;8.502;2024-02-23T09:05:55;9.60;99.90
12049;DHT22;6085;49.452;8.502;2024-02-23T09:09:58;10.00;99.90
12049;DHT22;6085;49.452;8.502;2024-02-23T09:14:00;10.00;99.90
12049;DHT22;6085;49.452;8.502;2024-02-23T09:18:02;11.20;99.90
12049;DHT22;6085;49.452;8.502;2024-02-23T09:22:04;12.30;99.90
12049;DHT22;6085;49.452;8.502;2024-02-23T09:26:10;14.50;99.90
12049;DHT22;6085;49.452;8.502;2024-02-23T09:30:13;16.40;99.90
12049;DHT22;6085;49.452;8.502;2024-02-23T09:34:15;17.90;94.90
12049;DHT22;6085;49.452;8.502;2024-02-23T09:38:17;18.00;91.40
12049;DHT22;6085;49.452;8.502;2024-02-23T09:42:22;16.60;92.40
12049;DHT22;6085;49.452;8.502;2024-02-23T09:46:26;14.40;95.00
12049;DHT22;6085;49.452;8.502;2024-02-23T09:50:28;13.50;98.30
12049;DHT22;6085;49.452;8.502;2024-02-23T09:54:31;13.40;98.70
12049;DHT22;6085;49.452;8.502;2024-02-23T09:58:35;13.40;99.90
12049;DHT22;6085;49.452;8.502;2024-02-23T10:02:42;12.70;99.90
12049;DHT22;6085;49.452;8.502;2024-02-23T10:06:44;12.30;99.90
12049;DHT22;6085;49.452;8.502;2024-02-23T10:10:46;11.60;99.90
12049;DHT22;6085;49.452;8.502;2024-02-23T10:14:52;11.20;99.90
12049;DHT22;6085;49.452;8.502;2024-02-23T10:18:54;11.80;99.90
12049;DHT22;6085;49.452;8.502;2024-02-23T10:22:57;14.60;99.90
12049;DHT22;6085;49.452;8.502;2024-02-23T10:27:00;14.80;99.90
12049;DHT22;6085;49.452;8.502;2024-02-23T10:31:04;14.80;99.90
12049;DHT22;6085;49.452;8.502;2024-02-23T10:35:10;15.20;98.30
12049;DHT22;6085;49.452;8.502;2024-02-23T10:39:15;13.40;99.90
12049;DHT22;6085;49.452;8.502;2024-02-23T10:43:19;12.10;99.90
12049;DHT22;6085;49.452;8.502;2024-02-23T10:47:23;12.00;99.90
12049;DHT22;6085;49.452;8.502;2024-02-23T10:51:25;11.40;99.90
12049;DHT22;6085;49.452;8.502;2024-02-23T10:55:29;10.60;99.90
12049;DHT22;6085;49.452;8.502;2024-02-23T10:59:33;10.40;99.90
12049;DHT22;6085;49.452;8.502;2024-02-23T11:03:38;10.70;99.90
12049;DHT22;6085;49.452;8.502;2024-02-23T11:07:41;10.70;99.90
12049;DHT22;6085;49.452;8.502;2024-02-23T11:11:52;11.30;99.90
12049;DHT22;6085;49.452;8.502;2024-02-23T11:16:01;11.80;99.90
12049;DHT22;6085;49.452;8.502;2024-02-23T11:20:05;11.90;99.90
12049;DHT22;6085;49.452;8.502;2024-02-23T11:24:15;11.90;99.90
12049;DHT22;6085;49.452;8.502;2024-02-23T11:28:22;11.60;99.90
12049;DHT22;6085;49.452;8.502;2024-02-23T11:32:36;11.30;99.90
12049;DHT22;6085;49.452;8.502;2024-02-23T11:36:40;11.20;99.90
12049;DHT22;6085;49.452;8.502;2024-02-23T11:40:42;11.10;99.90
12049;DHT22;6085;49.452;8.502;2024-02-23T11:44:44;11.10;99.90
12049;DHT22;6085;49.452;8.502;2024-02-23T11:48:46;10.80;99.90
12049;DHT22;6085;49.452;8.502;2024-02-23T11:52:55;10.60;99.90
12049;DHT22;6085;49.452;8.502;2024-02-23T11:57:05;10.60;99.90
12049;DHT22;6085;49.452;8.502;2024-02-23T12:01:13;10.70;99.90
12049;DHT22;6085;49.452;8.502;2024-02-23T12:05:15;11.70;99.90
12049;DHT22;6085;49.452;8.502;2024-02-23T12:09:18;11.80;99.90
12049;DHT22;6085;49.452;8.502;2024-02-23T12:13:20;11.50;99.90
12049;DHT22;6085;49.452;8.502;2024-02-23T12:17:22;11.20;99.90
12049;DHT22;6085;49.452;8.502;2024-02-23T12:21:24;10.90;99.90
12049;DHT22;6085;49.452;8.502;2024-02-23T12:25:28;10.60;99.90
12049;DHT22;6085;49.452;8.502;2024-02-23T12:29:30;10.30;99.90
12049;DHT22;6085;49.452;8.502;2024-02-23T12:33:32;9.70;99.90
12049;DHT22;6085;49.452;8.502;2024-02-23T12:37:35;9.40;99.90
12049;DHT22;6085;49.452;8.502;2024-02-23T12:41:39;10.10;99.90
12049;DHT22;6085;49.452;8.502;2024-02-23T12:45:41;11.80;99.90
12049;DHT22;6085;49.452;8.502;2024-02-23T12:49:44;12.20;99.90
12049;DHT22;6085;49.452;8.502;2024-02-23T12:53:46;12.20;99.90
12049;DHT22;6085;49.452;8.502;2024-02-23T12:57:49;11.70;99.90
12049;DHT22;6085;49.452;8.502;2024-02-23T13:01:51;11.80;99.90
12049;DHT22;6085;49.452;8.502;2024-02-23T13:05:53;12.40;99.90
12049;DHT22;6085;49.452;8.502;2024-02-23T13:09:55;12.30;99.90
12049;DHT22;6085;49.452;8.502;2024-02-23T13:13:59;12.70;99.90
12049;DHT22;6085;49.452;8.502;2024-02-23T13:18:00;12.80;99.90
12049;DHT22;6085;49.452;8.502;2024-02-23T13:22:03;12.30;99.90
12049;DHT22;6085;49.452;8.502;2024-02-23T13:26:05;11.80;99.90
12049;DHT22;6085;49.452;8.502;2024-02-23T13:30:10;11.50;99.90
12049;DHT22;6085;49.452;8.502;2024-02-23T13:34:12;11.40;99.90
12049;DHT22;6085;49.452;8.502;2024-02-23T13:38:16;11.00;99.90
12049;DHT22;6085;49.452;8.502;2024-02-23T13:42:18;10.90;99.90
12049;DHT22;6085;49.452;8.502;2024-02-23T13:46:21;10.70;99.90
12049;DHT22;6085;49.452;8.502;2024-02-23T13:50:23;10.60;99.90
12049;DHT22;6085;49.452;8.502;2024-02-23T13:54:25;10.50;99.90
12049;DHT22;6085;49.452;8.502;2024-02-23T13:58:27;10.40;99.90
12049;DHT22;6085;49.452;8.502;2024-02-23T14:02:31;10.40;99.90
12049;DHT22;6085;49.452;8.502;2024-02-23T14:06:33;9.70;99.90
12049;DHT22;6085;49.452;8.502;2024-02-23T14:10:35;8.80;99.90
12049;DHT22;6085;49.452;8.502;2024-02-23T14:14:36;8.30;99.90
12049;DHT22;6085;49.452;8.502;2024-02-23T14:18:40;7.90;99.90
12049;DHT22;6085;49.452;8.502;2024-02-23T14:22:44;7.70;99.90
12049;DHT22;6085;49.452;8.502;2024-02-23T14:26:46;7.50;99.90
12049;DHT22;6085;49.452;8.502;2024-02-23T14:30:48;7.50;99.90
12049;DHT22;6085;49.452;8.502;2024-02-23T14:34:51;7.60;99.90
12049;DHT22;6085;49.452;8.502;2024-02-23T14:38:53;7.90;99.90
12049;DHT22;6085;49.452;8.502;2024-02-23T14:42:55;8.20;99.90
12049;DHT22;6085;49.452;8.502;2024-02-23T14:46:57;8.50;99.90
12049;DHT22;6085;49.452;8.502;2024-02-23T14:51:00;8.80;99.90
12049;DHT22;6085;49.452;8.502;2024-02-23T14:55:04;9.90;99.90
12049;DHT22;6085;49.452;8.502;2024-02-23T14:59:07;10.10;99.90
12049;DHT22;6085;49.452;8.502;2024-02-23T15:03:10;9.80;99.90
12049;DHT22;6085;49.452;8.502;2024-02-23T15:07:14;9.60;99.90
12049;DHT22;6085;49.452;8.502;2024-02-23T15:11:16;9.60;99.90
12049;DHT22;6085;49.452;8.502;2024-02-23T15:15:18;9.50;99.90
12049;DHT22;6085;49.452;8.502;2024-02-23T15:19:20;9.40;99.90
12049;DHT22;6085;49.452;8.502;2024-02-23T15:23:24;9.30;99.90
12049;DHT22;6085;49.452;8.502;2024-02-23T15:27:26;9.40;99.90
12049;DHT22;6085;49.452;8.502;2024-02-23T15:31:28;10.40;99.90
12049;DHT22;6085;49.452;8.502;2024-02-23T15:35:30;11.70;99.90
12049;DHT22;6085;49.452;8.502;2024-02-23T15:39:34;12.80;99.90
12049;DHT22;6085;49.452;8.502;2024-02-23T15:43:35;12.90;99.90
12049;DHT22;6085;49.452;8.502;2024-02-23T15:47:38;12.10;99.90
12049;DHT22;6085;49.452;8.502;2024-02-23T15:51:40;11.30;99.90
12049;DHT22;6085;49.452;8.502;2024-02-23T15:55:44;10.70;99.90
12049;DHT22;6085;49.452;8.502;2024-02-23T15:59:45;10.00;99.90
12049;DHT22;6085;49.452;8.502;2024-02-23T16:03:47;9.50;99.90
12049;DHT22;6085;49.452;8.502;2024-02-23T16:07:49;9.20;99.90
12049;DHT22;6085;49.452;8.502;2024-02-23T16:11:52;9.00;99.90
12049;DHT22;6085;49.452;8.502;2024-02-23T16:15:54;9.00;99.90
12049;DHT22;6085;49.452;8.502;2024-02-23T16:19:56;9.00;99.90
12049;DHT22;6085;49.452;8.502;2024-02-23T16:23:58;9.00;99.90
12049;DHT22;6085;49.452;8.502;2024-02-23T16:28:03;8.90;99.90
12049;DHT22;6085;49.452;8.502;2024-02-23T16:32:05;8.80;99.90
12049;DHT22;6085;49.452;8.502;2024-02-23T16:36:07;8.80;99.90
12049;DHT22;6085;49.452;8.502;2024-02-23T16:40:18;8.70;99.90
12049;DHT22;6085;49.452;8.502;2024-02-23T16:44:24;8.70;99.90
12049;DHT22;6085;49.452;8.502;2024-02-23T16:48:26;8.60;99.90
12049;DHT22;6085;49.452;8.502;2024-02-23T16:52:28;8.60;99.90
12049;DHT22;6085;49.452;8.502;2024-02-23T16:56:30;8.50;99.90
12049;DHT22;6085;49.452;8.502;2024-02-23T17:00:33;8.40;99.90
12049;DHT22;6085;49.452;8.502;2024-02-23T17:04:35;8.40;99.90
12049;DHT22;6085;49.452;8.502;2024-02-23T17:08:37;8.40;99.90
12049;DHT22;6085;49.452;8.502;2024-02-23T17:12:40;8.40;99.90
12049;DHT22;6085;49.452;8.502;2024-02-23T17:16:47;8.40;99.90
12049;DHT22;6085;49.452;8.502;2024-02-23T17:20:48;8.40;99.90
12049;DHT22;6085;49.452;8.502;2024-02-23T17:24:50;8.40;99.90
12049;DHT22;6085;49.452;8.502;2024-02-23T17:28:52;8.40;99.90
12049;DHT22;6085;49.452;8.502;2024-02-23T17:32:55;8.30;99.90
12049;DHT22;6085;49.452;8.502;2024-02-23T17:36:57;8.10;99.90
12049;DHT22;6085;49.452;8.502;2024-02-23T17:40:59;7.90;99.90
12049;DHT22;6085;49.452;8.502;2024-02-23T17:45:01;7.80;99.90
12049;DHT22;6085;49.452;8.502;2024-02-23T17:49:04;7.70;99.90
12049;DHT22;6085;49.452;8.502;2024-02-23T17:53:07;7.80;99.90
12049;DHT22;6085;49.452;8.502;2024-02-23T17:57:09;7.80;99.90
12049;DHT22;6085;49.452;8.502;2024-02-23T18:01:11;7.70;99.90
12049;DHT22;6085;49.452;8.502;2024-02-23T18:05:14;7.60;99.90
12049;DHT22;6085;49.452;8.502;2024-02-23T18:09:16;7.50;99.90
12049;DHT22;6085;49.452;8.502;2024-02-23T18:13:18;7.40;99.90
12049;DHT22;6085;49.452;8.502;2024-02-23T18:17:20;7.40;99.90
12049;DHT22;6085;49.452;8.502;2024-02-23T18:21:24;7.30;99.90
12049;DHT22;6085;49.452;8.502;2024-02-23T18:25:26;7.20;99.90
12049;DHT22;6085;49.452;8.502;2024-02-23T18:29:27;7.10;99.90
12049;DHT22;6085;49.452;8.502;2024-02-23T18:33:29;7.20;99.90
12049;DHT22;6085;49.452;8.502;2024-02-23T18:37:34;7.20;99.90
12049;DHT22;6085;49.452;8.502;2024-02-23T18:41:35;7.20;99.90
12049;DHT22;6085;49.452;8.502;2024-02-23T18:45:37;7.10;99.90
12049;DHT22;6085;49.452;8.502;2024-02-23T18:49:39;7.10;99.90
12049;DHT22;6085;49.452;8.502;2024-02-23T18:53:42;7.00;99.90
12049;DHT22;6085;49.452;8.502;2024-02-23T18:57:44;7.00;99.90
12049;DHT22;6085;49.452;8.502;2024-02-23T19:01:46;6.90;99.90
12049;DHT22;6085;49.452;8.502;2024-02-23T19:05:48;6.80;99.90
12049;DHT22;6085;49.452;8.502;2024-02-23T19:09:51;6.60;99.90
12049;DHT22;6085;49.452;8.502;2024-02-23T19:13:52;6.50;99.90
12049;DHT22;6085;49.452;8.502;2024-02-23T19:17:54;6.40;99.90
12049;DHT22;6085;49.452;8.502;2024-02-23T19:21:56;6.40;99.90
12049;DHT22;6085;49.452;8.502;2024-02-23T19:25:59;6.40;99.90
12049;DHT22;6085;49.452;8.502;2024-02-23T19:30:01;6.30;99.90
12049;DHT22;6085;49.452;8.502;2024-02-23T19:34:04;6.20;99.90
12049;DHT22;6085;49.452;8.502;2024-02-23T19:38:06;6.20;99.90
12049;DHT22;6085;49.452;8.502;2024-02-23T19:42:09;6.10;99.90
12049;DHT22;6085;49.452;8.502;2024-02-23T19:46:12;6.00;99.90
12049;DHT22;6085;49.452;8.502;2024-02-23T19:50:17;5.80;99.90
12049;DHT22;6085;49.452;8.502;2024-02-23T19:54:19;5.70;99.90
12049;DHT22;6085;49.452;8.502;2024-02-23T19:58:22;5.60;99.90
12049;DHT22;6085;49.452;8.502;2024-02-23T20:02:24;5.50;99.90
12049;DHT22;6085;49.452;8.502;2024-02-23T20:06:26;5.40;99.90
12049;DHT22;6085;49.452;8.502;2024-02-23T20:10:28;5.40;99.90
12049;DHT22;6085;49.452;8.502;2024-02-23T20:14:31;5.40;99.90
12049;DHT22;6085;49.452;8.502;2024-02-23T20:18:33;5.40;99.90
12049;DHT22;6085;49.452;8.502;2024-02-23T20:22:35;5.40;99.90
12049;DHT22;6085;49.452;8.502;2024-02-23T20:26:37;5.40;99.90
12049;DHT22;6085;49.452;8.502;2024-02-23T20:30:40;5.50;99.90
12049;DHT22;6085;49.452;8.502;2024-02-23T20:34:43;5.40;99.90
12049;DHT22;6085;49.452;8.502;2024-02-23T20:38:44;5.20;99.90
12049;DHT22;6085;49.452;8.502;2024-02-23T20:42:46;5.10;99.90
12049;DHT22;6085;49.452;8.502;2024-02-23T20:46:51;5.10;99.90
12049;DHT22;6085;49.452;8.502;2024-02-23T20:50:53;5.10;99.90
12049;DHT22;6085;49.452;8.502;2024-02-23T20:54:55;5.10;99.90
12049;DHT22;6085;49.452;8.502;2024-02-23T20:58:57;5.10;99.90
12049;DHT22;6085;49.452;8.502;2024-02-23T21:03:00;5.10;99.90
12049;DHT22;6085;49.452;8.502;2024-02-23T21:07:02;5.10;99.90
12049;DHT22;6085;49.452;8.502;2024-02-23T21:11:05;5.20;99.90
12049;DHT22;6085;49.452;8.502;2024-02-23T21:15:07;5.20;99.90
12049;DHT22;6085;49.452;8.502;2024-02-23T21:19:10;5.20;99.90
12049;DHT22;6085;49.452;8.502;2024-02-23T21:23:13;5.20;99.90
12049;DHT22;6085;49.452;8.502;2024-02-23T21:27:15;5.10;99.90
12049;DHT22;6085;49.452;8.502;2024-02-23T21:31:17;5.10;99.90
12049;DHT22;6085;49.452;8.502;2024-02-23T21:35:20;5.10;99.90
12049;DHT22;6085;49.452;8.502;2024-02-23T21:39:23;5.20;99.90
12049;DHT22;6085;49.452;8.502;2024-02-23T21:43:25;5.00;99.90
12049;DHT22;6085;49.452;8.502;2024-02-23T21:47:27;5.00;99.90
12049;DHT22;6085;49.452;8.502;2024-02-23T21:51:30;5.00;99.90
12049;DHT22;6085;49.452;8.502;2024-02-23T21:55:32;4.80;99.90
12049;DHT22;6085;49.452;8.502;2024-02-23T21:59:34;4.80;99.90
12049;DHT22;6085;49.452;8.502;2024-02-23T22:03:35;4.90;99.90
12049;DHT22;6085;49.452;8.502;2024-02-23T22:07:39;5.20;99.90
12049;DHT22;6085;49.452;8.502;2024-02-23T22:11:41;5.40;99.90
12049;DHT22;6085;49.452;8.502;2024-02-23T22:15:43;5.50;99.90
12049;DHT22;6085;49.452;8.502;2024-02-23T22:19:45;5.50;99.90
12049;DHT22;6085;49.452;8.502;2024-02-23T22:23:48;5.50;99.90
12049;DHT22;6085;49.452;8.502;2024-02-23T22:27:50;5.40;99.90
12049;DHT22;6085;49.452;8.502;2024-02-23T22:31:52;5.20;99.90
12049;DHT22;6085;49.452;8.502;2024-02-23T22:35:54;5.00;99.90
12049;DHT22;6085;49.452;8.502;2024-02-23T22:39:57;4.80;99.90
12049;DHT22;6085;49.452;8.502;2024-02-23T22:43:59;4.70;99.90
12049;DHT22;6085;49.452;8.502;2024-02-23T22:48:01;4.60;99.90
12049;DHT22;6085;49.452;8.502;2024-02-23T22:52:03;4.60;99.90
12049;DHT22;6085;49.452;8.502;2024-02-23T22:56:06;4.70;99.90
12049;DHT22;6085;49.452;8.502;2024-02-23T23:00:09;4.70;99.90
12049;DHT22;6085;49.452;8.502;2024-02-23T23:04:11;4.80;99.90
12049;DHT22;6085;49.452;8.502;2024-02-23T23:08:12;5.00;99.90
12049;DHT22;6085;49.452;8.502;2024-02-23T23:12:17;5.00;99.90
12049;DHT22;6085;49.452;8.502;2024-02-23T23:16:19;5.00;99.90
12049;DHT22;6085;49.452;8.502;2024-02-23T23:20:21;5.00;99.90
12049;DHT22;6085;49.452;8.502;2024-02-23T23:24:23;4.80;99.90
12049;DHT22;6085;49.452;8.502;2024-02-23T23:28:26;4.60;99.90
12049;DHT22;6085;49.452;8.502;2024-02-23T23:32:28;4.50;99.90
12049;DHT22;6085;49.452;8.502;2024-02-23T23:36:30;4.40;99.90
12049;DHT22;6085;49.452;8.502;2024-02-23T23:40:31;4.30;99.90
12049;DHT22;6085;49.452;8.502;2024-02-23T23:44:35;4.20;99.90
12049;DHT22;6085;49.452;8.502;2024-02-23T23:48:37;4.20;99.90
12049;DHT22;6085;49.452;8.502;2024-02-23T23:52:39;4.10;99.90
12049;DHT22;6085;49.452;8.502;2024-02-23T23:56:41;4.00;99.90
